Marvel, Colorado
Current Conditions -  °F | °C
As of 10:53 PM on Tuesday 27 Jan 2015 (Local Time) from KDRO Reporting Station
Overcast Overcast  
Wind Chill: 33°   Ceiling: 7500
Heat Index: 33°   Visibility: 10mi
Dew Point: 28°   Wind: 3mph
Humidity: 82%   Direction: 100°E
Pressure: 30.28"   Gusts: NA
Location:  37.11°N, 108.13°W
Report Text: KDRO 280553Z AUTO 10003KT 10SM OVC075 01/M02 A3028 RMK AO2 SLP257 T00061022 10089 21006 58004
Loading
Personal Weather Stations






























Interactive Weather Map New forecast layout! Learn more

10-Day Weather Forecast

Advertisements
Track Severe Weather on mobile